Time;durP1;ratioP1;P1;durP2;ratioP2;P2;SDS_P1;SDS_P2;PMS_P1;PMS_P2;Temp;Humidity;BMP_temperature;BMP_pressure;BME280_temperature;BME280_humidity;BME280_pressure;Samples;Min_cycle;Max_cycle;Signal;HPM_P1;HPM_P2
2024/02/23 00:01:28;;;;;;;0.32;0.32;;;9.80;99.90;;;;;;5022782;28;20547;-89
2024/02/23 00:03:55;;;;;;;0.40;0.40;;;9.80;99.90;;;;;;5043432;28;20014;-89
2024/02/23 00:06:21;;;;;;;0.50;0.50;;;9.80;99.90;;;;;;5039795;28;20013;-90
2024/02/23 00:08:46;;;;;;;2.55;1.17;;;9.80;99.90;;;;;;5037816;28;20028;-88
2024/02/23 00:11:12;;;;;;;0.50;0.50;;;9.80;99.90;;;;;;5019643;28;20036;-90
2024/02/23 00:13:37;;;;;;;0.50;0.50;;;9.80;99.90;;;;;;5033665;28;20021;-88
2024/02/23 00:16:03;;;;;;;0.55;0.55;;;9.80;99.90;;;;;;5035723;28;20423;-88
2024/02/23 00:18:29;;;;;;;2.65;0.60;;;9.80;99.90;;;;;;5038617;28;20112;-89
2024/02/23 00:20:56;;;;;;;0.63;0.60;;;9.70;99.90;;;;;;5029864;28;20041;-89
2024/02/23 00:23:21;;;;;;;0.55;0.50;;;9.80;99.90;;;;;;5028361;28;20029;-89
2024/02/23 00:25:48;;;;;;;0.57;0.57;;;9.70;99.90;;;;;;5026154;28;20112;-88
2024/02/23 00:28:13;;;;;;;0.47;0.47;;;9.70;99.90;;;;;;5033491;28;20549;-89
2024/02/23 00:30:39;;;;;;;0.45;0.45;;;9.70;99.90;;;;;;5031444;28;20029;-90
2024/02/23 00:33:05;;;;;;;0.98;0.50;;;9.70;99.90;;;;;;5026152;28;20057;-91
2024/02/23 00:35:30;;;;;;;0.50;0.50;;;9.70;99.90;;;;;;5033796;28;20021;-88
2024/02/23 00:37:56;;;;;;;0.60;0.60;;;9.70;99.90;;;;;;5029643;28;20024;-89
2024/02/23 00:40:23;;;;;;;0.55;0.43;;;9.80;99.90;;;;;;5050872;28;20016;-88
2024/02/23 00:42:49;;;;;;;0.50;0.47;;;9.80;99.90;;;;;;5042526;28;20025;-88
2024/02/23 00:45:14;;;;;;;0.90;0.60;;;9.80;99.90;;;;;;5020925;28;20372;-88
2024/02/23 00:47:40;;;;;;;1.25;0.50;;;9.80;99.90;;;;;;5038368;28;20383;-88
2024/02/23 00:50:06;;;;;;;1.13;0.60;;;9.80;99.90;;;;;;5034542;28;20475;-89
2024/02/23 00:52:32;;;;;;;0.65;0.40;;;9.80;99.90;;;;;;5043212;28;20029;-88
2024/02/23 00:54:57;;;;;;;1.70;0.60;;;9.80;99.90;;;;;;5024214;28;20026;-89
2024/02/23 00:57:27;;;;;;;0.50;0.50;;;9.80;99.90;;;;;;5029459;28;20395;-87
2024/02/23 00:59:53;;;;;;;0.55;0.55;;;9.80;99.90;;;;;;5043919;28;20028;-89
2024/02/23 01:02:18;;;;;;;0.95;0.40;;;9.80;99.90;;;;;;5031509;28;20022;-90
2024/02/23 01:04:44;;;;;;;0.30;0.30;;;9.80;99.90;;;;;;5024305;28;20029;-90
2024/02/23 01:07:10;;;;;;;1.67;0.47;;;9.80;99.90;;;;;;5031695;28;20108;-90
2024/02/23 01:09:35;;;;;;;0.65;0.50;;;9.80;99.90;;;;;;5028153;28;20029;-89
2024/02/23 01:12:01;;;;;;;0.85;0.40;;;9.80;99.90;;;;;;5047672;28;20036;-89
2024/02/23 01:14:27;;;;;;;1.58;0.40;;;9.80;99.90;;;;;;5033041;28;20026;-88
2024/02/23 01:16:52;;;;;;;0.30;0.30;;;9.70;99.90;;;;;;5031932;28;20040;-91
2024/02/23 01:19:18;;;;;;;0.47;0.40;;;9.70;99.90;;;;;;5033830;28;20014;-89
2024/02/23 01:21:44;;;;;;;2.53;0.40;;;9.70;99.90;;;;;;5037481;28;20143;-89
2024/02/23 01:24:09;;;;;;;0.30;0.30;;;9.70;99.90;;;;;;5025426;28;20055;-90
2024/02/23 01:26:36;;;;;;;0.35;0.35;;;9.80;99.90;;;;;;5035602;28;20023;-88
2024/02/23 01:29:03;;;;;;;0.35;0.35;;;9.80;99.90;;;;;;5030629;28;20018;-90
2024/02/23 01:31:28;;;;;;;0.30;0.30;;;9.70;99.90;;;;;;5038736;28;20388;-89
2024/02/23 01:33:54;;;;;;;0.40;0.40;;;9.70;99.90;;;;;;5028457;28;20025;-87
2024/02/23 01:36:20;;;;;;;1.98;0.57;;;9.70;99.90;;;;;;5040281;28;20044;-89
2024/02/23 01:38:45;;;;;;;0.40;0.40;;;9.70;99.90;;;;;;5023787;28;20020;-89
2024/02/23 01:41:12;;;;;;;0.40;0.40;;;9.70;99.90;;;;;;5039560;28;20361;-90
2024/02/23 01:43:37;;;;;;;1.05;0.50;;;9.70;99.90;;;;;;5026144;28;20016;-88
2024/02/23 01:46:04;;;;;;;0.40;0.30;;;9.70;99.90;;;;;;5039578;28;20104;-88
2024/02/23 01:48:31;;;;;;;0.32;0.32;;;9.80;99.90;;;;;;5049790;28;20030;-89
2024/02/23 01:50:57;;;;;;;0.85;0.50;;;9.80;99.90;;;;;;5028562;28;20039;-90
2024/02/23 01:53:25;;;;;;;0.90;0.57;;;9.70;99.90;;;;;;5025929;28;20535;-88
2024/02/23 01:55:51;;;;;;;0.40;0.32;;;9.70;99.90;;;;;;5033470;28;20022;-89
2024/02/23 01:58:17;;;;;;;1.33;0.30;;;9.70;99.90;;;;;;5028342;28;20106;-90
2024/02/23 02:00:43;;;;;;;0.35;0.35;;;9.70;99.90;;;;;;5042531;28;20014;-89
2024/02/23 02:03:09;;;;;;;0.30;0.30;;;9.80;99.90;;;;;;5033714;28;20479;-90
2024/02/23 02:05:37;;;;;;;1.30;0.30;;;9.70;99.90;;;;;;5030300;28;20025;-90
2024/02/23 02:08:03;;;;;;;0.22;0.22;;;9.80;99.90;;;;;;5033310;28;20036;-88
2024/02/23 02:10:28;;;;;;;0.38;0.38;;;9.80;99.90;;;;;;5027618;28;20018;-89
2024/02/23 02:12:54;;;;;;;0.32;0.32;;;9.70;99.90;;;;;;5043408;28;20070;-89
2024/02/23 02:15:21;;;;;;;0.38;0.38;;;9.70;99.90;;;;;;5031001;28;20479;-88
2024/02/23 02:17:47;;;;;;;1.58;0.40;;;9.80;99.90;;;;;;5033698;28;20017;-90
2024/02/23 02:20:13;;;;;;;0.30;0.30;;;9.80;99.90;;;;;;5038452;28;20029;-89
2024/02/23 02:22:39;;;;;;;0.40;0.30;;;9.80;99.90;;;;;;5030864;28;20027;-90
2024/02/23 02:25:06;;;;;;;0.20;0.20;;;9.70;99.90;;;;;;5040023;28;20022;-87
2024/02/23 02:27:32;;;;;;;0.63;0.63;;;9.70;99.90;;;;;;5023978;28;20416;-88
2024/02/23 02:29:57;;;;;;;0.47;0.47;;;9.80;99.90;;;;;;5027806;28;20109;-87
2024/02/23 02:32:23;;;;;;;0.30;0.30;;;9.80;99.90;;;;;;5040022;28;20057;-88
2024/02/23 02:34:49;;;;;;;0.63;0.40;;;9.80;99.90;;;;;;5041376;28;20030;-88
2024/02/23 02:37:15;;;;;;;2.17;0.52;;;9.80;99.90;;;;;;5028735;28;20049;-87
2024/02/23 02:39:40;;;;;;;0.35;0.35;;;9.80;99.90;;;;;;5036943;28;20060;-88
2024/02/23 02:42:06;;;;;;;0.30;0.30;;;9.80;99.90;;;;;;5032022;28;20022;-88
2024/02/23 02:44:32;;;;;;;0.45;0.40;;;9.80;99.90;;;;;;5030768;28;20025;-88
2024/02/23 02:46:57;;;;;;;0.90;0.40;;;9.70;99.90;;;;;;5028611;28;20018;-88
2024/02/23 02:49:24;;;;;;;1.23;0.60;;;9.70;99.90;;;;;;5027653;28;20037;-88
2024/02/23 02:51:49;;;;;;;0.30;0.30;;;9.70;99.90;;;;;;5029117;28;20021;-88
2024/02/23 02:54:16;;;;;;;0.43;0.43;;;9.70;99.90;;;;;;5025738;28;20033;-88
2024/02/23 02:56:47;;;;;;;0.70;0.70;;;9.70;99.90;;;;;;5030148;28;20023;-87
2024/02/23 02:59:13;;;;;;;0.43;0.40;;;9.80;99.90;;;;;;5024291;28;20098;-88
2024/02/23 03:01:39;;;;;;;0.40;0.40;;;9.70;99.90;;;;;;5022327;28;20563;-88
2024/02/23 03:04:05;;;;;;;0.55;0.32;;;9.70;99.90;;;;;;5040253;28;20081;-87
2024/02/23 03:06:31;;;;;;;0.40;0.40;;;9.80;99.90;;;;;;5035956;28;20025;-87
2024/02/23 03:08:56;;;;;;;0.40;0.40;;;9.80;99.90;;;;;;5024729;28;20021;-88
2024/02/23 03:11:22;;;;;;;0.30;0.30;;;9.80;99.90;;;;;;5026730;28;20060;-88
2024/02/23 03:13:47;;;;;;;0.47;0.45;;;9.80;99.90;;;;;;5035063;28;20536;-88
2024/02/23 03:16:20;;;;;;;0.32;0.32;;;9.80;99.90;;;;;;5032536;28;20116;-89
2024/02/23 03:18:46;;;;;;;0.40;0.40;;;9.80;99.90;;;;;;5027675;28;20040;-88
2024/02/23 03:21:15;;;;;;;1.55;0.55;;;9.80;99.90;;;;;;5027627;28;20169;-88
2024/02/23 03:23:40;;;;;;;1.65;0.40;;;9.80;99.90;;;;;;5038504;28;20017;-88
2024/02/23 03:26:08;;;;;;;1.70;0.43;;;9.80;99.90;;;;;;5022719;28;20075;-87
2024/02/23 03:28:33;;;;;;;0.38;0.38;;;9.70;99.90;;;;;;5029445;28;20026;-88
2024/02/23 03:31:00;;;;;;;0.30;0.30;;;9.70;99.90;;;;;;5034140;28;20487;-88
2024/02/23 03:33:26;;;;;;;0.43;0.43;;;9.70;99.90;;;;;;5019125;28;20502;-88
2024/02/23 03:35:52;;;;;;;1.20;0.50;;;9.70;99.90;;;;;;5024301;28;20025;-89
2024/02/23 03:38:17;;;;;;;1.33;0.45;;;9.70;99.90;;;;;;5025654;28;20069;-88
2024/02/23 03:40:43;;;;;;;0.60;0.50;;;9.70;99.90;;;;;;5033804;28;20543;-88
2024/02/23 03:43:09;;;;;;;0.30;0.30;;;9.70;99.90;;;;;;5034680;28;20026;-87
2024/02/23 03:45:34;;;;;;;0.30;0.30;;;9.70;99.90;;;;;;5026710;28;20022;-88
2024/02/23 03:48:03;;;;;;;0.50;0.50;;;9.70;99.90;;;;;;5024681;28;20022;-88
2024/02/23 03:50:29;;;;;;;0.40;0.40;;;9.70;99.90;;;;;;5034038;28;20116;-87
2024/02/23 03:52:55;;;;;;;0.43;0.40;;;9.70;99.90;;;;;;5027695;28;20050;-87
2024/02/23 03:55:21;;;;;;;2.25;0.50;;;9.70;99.90;;;;;;5032679;28;20124;-88
2024/02/23 03:57:47;;;;;;;0.40;0.40;;;9.70;99.90;;;;;;5032834;28;20017;-88
2024/02/23 04:00:13;;;;;;;0.50;0.50;;;9.70;99.90;;;;;;5027481;28;20033;-88
2024/02/23 04:02:39;;;;;;;0.40;0.40;;;9.70;99.90;;;;;;5039817;28;20017;-88
2024/02/23 04:05:06;;;;;;;0.30;0.30;;;9.70;99.90;;;;;;5032342;28;20028;-88
2024/02/23 04:07:31;;;;;;;0.40;0.40;;;9.70;99.90;;;;;;5028300;28;20083;-87
2024/02/23 04:09:57;;;;;;;1.98;0.60;;;9.70;99.90;;;;;;5031789;28;20021;-88
2024/02/23 04:12:24;;;;;;;0.30;0.30;;;9.70;99.90;;;;;;5023199;28;20034;-88
2024/02/23 04:14:49;;;;;;;1.77;0.52;;;9.70;99.90;;;;;;5033076;28;20021;-87
2024/02/23 04:17:16;;;;;;;1.80;0.43;;;9.70;99.90;;;;;;5057585;28;20628;-88
2024/02/23 04:19:42;;;;;;;0.80;0.43;;;9.70;99.90;;;;;;5033403;28;20033;-87
2024/02/23 04:22:09;;;;;;;0.40;0.40;;;9.70;99.90;;;;;;5036949;28;20020;-88
2024/02/23 04:24:37;;;;;;;1.40;0.47;;;9.70;99.90;;;;;;5030771;28;20022;-87
2024/02/23 04:27:04;;;;;;;0.40;0.40;;;9.70;99.90;;;;;;5027840;28;20021;-87
2024/02/23 04:29:29;;;;;;;0.40;0.40;;;9.70;99.90;;;;;;5029082;28;20029;-87
2024/02/23 04:31:55;;;;;;;1.98;0.40;;;9.70;99.90;;;;;;5029217;28;20024;-88
2024/02/23 04:34:20;;;;;;;0.85;0.30;;;9.70;99.90;;;;;;5031358;28;20040;-87
2024/02/23 04:36:46;;;;;;;0.40;0.40;;;9.70;99.90;;;;;;5027753;28;20398;-88
2024/02/23 04:39:12;;;;;;;2.45;1.15;;;9.70;99.90;;;;;;5022096;28;20022;-88
2024/02/23 04:41:37;;;;;;;0.50;0.50;;;9.70;99.90;;;;;;5026494;28;20104;-88
2024/02/23 04:44:03;;;;;;;0.47;0.47;;;9.70;99.90;;;;;;5030484;28;20022;-87
2024/02/23 04:46:29;;;;;;;0.50;0.50;;;9.70;99.90;;;;;;5030160;28;20565;-88
2024/02/23 04:48:55;;;;;;;0.35;0.35;;;9.70;99.90;;;;;;5022140;28;20026;-88
2024/02/23 04:51:22;;;;;;;1.55;0.65;;;9.70;99.90;;;;;;5027181;28;20044;-88
2024/02/23 04:53:48;;;;;;;0.50;0.50;;;9.70;99.90;;;;;;5020610;28;20500;-88
2024/02/23 04:56:13;;;;;;;0.50;0.50;;;9.70;99.90;;;;;;5025753;28;20026;-87
2024/02/23 04:58:41;;;;;;;0.40;0.40;;;9.70;99.90;;;;;;5033811;28;20427;-88
2024/02/23 05:01:06;;;;;;;0.52;0.52;;;9.80;99.90;;;;;;5032676;28;20025;-88
2024/02/23 05:03:32;;;;;;;0.30;0.30;;;9.80;99.90;;;;;;5025821;28;20084;-88
2024/02/23 05:05:58;;;;;;;0.40;0.40;;;9.80;99.90;;;;;;5030254;28;20032;-89
2024/02/23 05:08:24;;;;;;;0.40;0.40;;;9.80;99.90;;;;;;5028803;28;20037;-87
2024/02/23 05:10:53;;;;;;;0.40;0.40;;;9.80;99.90;;;;;;5025189;28;20072;-88
2024/02/23 05:13:19;;;;;;;0.40;0.40;;;9.70;99.90;;;;;;5027116;28;20025;-87
2024/02/23 05:15:44;;;;;;;0.50;0.50;;;9.70;99.90;;;;;;5027311;28;20079;-88
2024/02/23 05:18:10;;;;;;;0.40;0.40;;;9.80;99.90;;;;;;5041602;28;20414;-87
2024/02/23 05:20:35;;;;;;;0.57;0.57;;;9.80;99.90;;;;;;5047400;28;20013;-88
2024/02/23 05:23:01;;;;;;;1.67;0.45;;;9.80;99.90;;;;;;5030542;28;20022;-88
2024/02/23 05:25:27;;;;;;;0.40;0.40;;;9.80;99.90;;;;;;5033250;28;20657;-88
2024/02/23 05:27:53;;;;;;;0.75;0.70;;;9.80;99.90;;;;;;5040311;28;20162;-87
2024/02/23 05:30:19;;;;;;;0.63;0.50;;;9.80;99.90;;;;;;5026213;28;20555;-88
2024/02/23 05:32:44;;;;;;;0.50;0.50;;;9.70;99.90;;;;;;5034429;28;20041;-87
2024/02/23 05:35:10;;;;;;;0.40;0.40;;;9.70;99.90;;;;;;5037976;28;20377;-88
2024/02/23 05:37:37;;;;;;;3.17;0.60;;;9.80;99.90;;;;;;5032672;28;20060;-86
2024/02/23 05:40:06;;;;;;;0.47;0.47;;;9.80;99.90;;;;;;5029329;28;20017;-88
2024/02/23 05:42:32;;;;;;;0.50;0.50;;;9.70;99.90;;;;;;5034843;28;20021;-89
2024/02/23 05:44:58;;;;;;;0.43;0.43;;;9.70;99.90;;;;;;5034752;28;20029;-88
2024/02/23 05:47:23;;;;;;;0.98;0.60;;;9.70;99.90;;;;;;5034654;28;20025;-88
2024/02/23 05:49:50;;;;;;;2.85;0.60;;;9.70;99.90;;;;;;5028295;28;20034;-88
2024/02/23 05:52:16;;;;;;;1.10;0.50;;;9.70;99.90;;;;;;5049080;28;20021;-87
2024/02/23 05:54:41;;;;;;;0.70;0.55;;;9.70;99.90;;;;;;5035192;28;20034;-87
2024/02/23 05:57:07;;;;;;;1.23;0.50;;;9.70;99.90;;;;;;5051087;28;20530;-87
2024/02/23 05:59:33;;;;;;;0.55;0.55;;;9.70;99.90;;;;;;5023886;28;20088;-88
2024/02/23 06:01:58;;;;;;;0.50;0.50;;;9.70;99.90;;;;;;5032461;28;20017;-88
2024/02/23 06:04:24;;;;;;;1.08;1.00;;;9.70;99.90;;;;;;5041661;28;20034;-87
2024/02/23 06:06:50;;;;;;;0.60;0.60;;;9.70;99.90;;;;;;5034228;28;20496;-88
2024/02/23 06:09:16;;;;;;;2.28;0.70;;;9.70;99.90;;;;;;5031042;28;20025;-87
2024/02/23 06:11:41;;;;;;;1.02;0.70;;;9.70;99.90;;;;;;5028864;28;20479;-88
2024/02/23 06:14:08;;;;;;;0.88;0.70;;;9.70;99.90;;;;;;5031617;28;20029;-87
2024/02/23 06:16:33;;;;;;;0.70;0.70;;;9.70;99.90;;;;;;5035877;28;20040;-88
2024/02/23 06:18:59;;;;;;;1.30;0.60;;;9.70;99.90;;;;;;5024495;28;20037;-89
2024/02/23 06:21:25;;;;;;;1.88;0.85;;;9.70;99.90;;;;;;5024603;28;20030;-87
2024/02/23 06:23:50;;;;;;;0.60;0.60;;;9.70;99.90;;;;;;5033497;28;20514;-87
2024/02/23 06:26:16;;;;;;;0.60;0.60;;;9.70;99.90;;;;;;5051701;28;20591;-88
2024/02/23 06:28:42;;;;;;;2.28;0.73;;;9.60;99.90;;;;;;5030103;28;20036;-88
2024/02/23 06:31:09;;;;;;;1.83;0.85;;;9.70;99.90;;;;;;5029582;28;20021;-88
2024/02/23 06:33:34;;;;;;;0.60;0.60;;;9.60;99.90;;;;;;5030969;28;20041;-88
2024/02/23 06:36:00;;;;;;;0.60;0.60;;;9.60;99.90;;;;;;5036952;28;20033;-86
2024/02/23 06:38:26;;;;;;;1.10;0.60;;;9.60;99.90;;;;;;5044735;28;20030;-89
2024/02/23 06:40:52;;;;;;;0.95;0.75;;;9.60;99.90;;;;;;5028598;28;20471;-87
2024/02/23 06:43:18;;;;;;;0.68;0.68;;;9.60;99.90;;;;;;5027539;28;20079;-87
2024/02/23 06:45:44;;;;;;;0.95;0.82;;;9.60;99.90;;;;;;5033794;28;20538;-88
2024/02/23 06:48:09;;;;;;;2.00;0.85;;;9.60;99.90;;;;;;5035873;28;20014;-88
2024/02/23 06:50:35;;;;;;;0.73;0.70;;;9.60;99.90;;;;;;5021185;28;20033;-88
2024/02/23 06:53:02;;;;;;;0.73;0.50;;;9.60;99.90;;;;;;5043804;28;20395;-87
2024/02/23 06:55:28;;;;;;;3.70;0.73;;;9.70;99.90;;;;;;5031752;28;20377;-87
2024/02/23 06:57:54;;;;;;;0.70;0.70;;;9.60;99.90;;;;;;5033502;28;20021;-88
2024/02/23 07:00:21;;;;;;;0.70;0.70;;;9.60;99.90;;;;;;5031759;28;20498;-88
2024/02/23 07:02:47;;;;;;;0.80;0.70;;;9.60;99.90;;;;;;5040152;28;20033;-88
2024/02/23 07:05:13;;;;;;;0.60;0.60;;;9.60;99.90;;;;;;5027861;28;20017;-88
2024/02/23 07:07:40;;;;;;;2.92;0.73;;;9.60;99.90;;;;;;5031879;28;20025;-87
2024/02/23 07:10:06;;;;;;;3.75;0.95;;;9.60;99.90;;;;;;5029963;28;20021;-87
2024/02/23 07:12:32;;;;;;;0.70;0.70;;;9.60;99.90;;;;;;5031454;28;20022;-88
2024/02/23 07:14:57;;;;;;;1.75;1.00;;;9.60;99.90;;;;;;5030440;28;20028;-88
2024/02/23 07:17:23;;;;;;;1.10;0.73;;;9.60;99.90;;;;;;5026117;28;20025;-88
2024/02/23 07:19:50;;;;;;;1.50;0.93;;;9.60;99.90;;;;;;5024518;28;20028;-88
2024/02/23 07:22:18;;;;;;;1.23;0.73;;;9.60;99.90;;;;;;5033786;28;20020;-88
2024/02/23 07:24:43;;;;;;;4.78;0.70;;;9.60;99.90;;;;;;5034540;28;20025;-88
2024/02/23 07:27:09;;;;;;;1.95;1.05;;;9.60;99.90;;;;;;5032014;28;20022;-87
2024/02/23 07:29:35;;;;;;;1.42;0.80;;;9.60;99.90;;;;;;5022456;28;20077;-87
2024/02/23 07:32:01;;;;;;;1.85;0.93;;;9.60;99.90;;;;;;5036245;28;20554;-88
2024/02/23 07:34:27;;;;;;;1.17;0.57;;;9.60;99.90;;;;;;5032625;28;20041;-88
2024/02/23 07:36:53;;;;;;;0.63;0.63;;;9.60;99.90;;;;;;5034506;28;20034;-89
2024/02/23 07:39:19;;;;;;;0.60;0.60;;;9.60;99.90;;;;;;5027008;28;20491;-88
2024/02/23 07:41:46;;;;;;;0.60;0.50;;;9.60;99.90;;;;;;5031181;28;20073;-88
2024/02/23 07:44:12;;;;;;;6.13;0.88;;;9.60;99.90;;;;;;5034012;28;20048;-87
2024/02/23 07:46:37;;;;;;;1.42;0.88;;;9.60;99.90;;;;;;5032757;28;20030;-87
2024/02/23 07:49:05;;;;;;;4.72;0.90;;;9.60;99.90;;;;;;5034341;28;20022;-88
2024/02/23 07:51:31;;;;;;;1.17;0.98;;;9.60;99.90;;;;;;5035149;28;20029;-87
2024/02/23 07:53:57;;;;;;;3.80;1.00;;;9.60;99.90;;;;;;5030376;28;20498;-87
2024/02/23 07:56:22;;;;;;;1.40;0.70;;;9.60;99.90;;;;;;5035098;28;20032;-88
2024/02/23 07:58:48;;;;;;;4.95;1.05;;;9.60;99.90;;;;;;5033346;28;20026;-86
2024/02/23 08:01:17;;;;;;;0.43;0.43;;;9.60;99.90;;;;;;5038503;28;20071;-88
2024/02/23 08:03:43;;;;;;;1.85;0.88;;;9.60;99.90;;;;;;5030190;28;20045;-88
2024/02/23 08:06:09;;;;;;;1.00;0.80;;;9.60;99.90;;;;;;5023997;28;20060;-88
2024/02/23 08:08:35;;;;;;;2.75;0.70;;;9.60;99.90;;;;;;5023474;28;20033;-88
2024/02/23 08:11:04;;;;;;;2.78;0.70;;;9.60;99.90;;;;;;5035012;28;20025;-88
2024/02/23 08:13:30;;;;;;;0.60;0.60;;;9.60;99.90;;;;;;5023307;28;20027;-87
2024/02/23 08:15:57;;;;;;;1.40;0.90;;;9.60;99.90;;;;;;5023958;28;20417;-88
2024/02/23 08:18:23;;;;;;;1.02;0.60;;;9.60;99.90;;;;;;5021947;28;20033;-88
2024/02/23 08:20:49;;;;;;;1.35;0.90;;;9.60;99.90;;;;;;5045343;28;20602;-88
2024/02/23 08:23:15;;;;;;;3.75;0.80;;;9.60;99.90;;;;;;5027466;28;20018;-88
2024/02/23 08:25:41;;;;;;;0.75;0.75;;;9.60;99.90;;;;;;5030323;28;20029;-88
2024/02/23 08:28:06;;;;;;;0.95;0.85;;;9.60;99.90;;;;;;5024645;28;20030;-88
2024/02/23 08:30:32;;;;;;;1.88;1.00;;;9.60;99.90;;;;;;5021602;28;20398;-88
2024/02/23 08:32:58;;;;;;;2.20;0.85;;;9.50;99.90;;;;;;5029645;28;20033;-88
2024/02/23 08:35:24;;;;;;;1.30;0.80;;;9.50;99.90;;;;;;5031359;28;20496;-88
2024/02/23 08:37:50;;;;;;;0.77;0.77;;;9.60;99.90;;;;;;5030500;28;20040;-87
2024/02/23 08:40:15;;;;;;;1.17;0.73;;;9.60;99.90;;;;;;5028139;28;20026;-87
2024/02/23 08:42:42;;;;;;;4.40;1.60;;;9.60;99.90;;;;;;5029062;28;20037;-88
2024/02/23 08:45:09;;;;;;;1.05;0.90;;;9.60;99.90;;;;;;5026598;28;20025;-87
2024/02/23 08:47:35;;;;;;;2.47;0.95;;;9.60;99.90;;;;;;5029549;28;20044;-88
2024/02/23 08:50:01;;;;;;;1.45;1.00;;;9.50;99.90;;;;;;5030812;28;20547;-88
2024/02/23 08:52:27;;;;;;;2.35;0.90;;;9.50;99.90;;;;;;5026064;28;20095;-88
2024/02/23 08:54:52;;;;;;;5.72;1.00;;;9.50;99.90;;;;;;5029732;28;20483;-88
2024/02/23 08:57:19;;;;;;;0.95;0.80;;;9.60;99.90;;;;;;5033123;28;20522;-87
2024/02/23 08:59:45;;;;;;;3.05;0.90;;;9.50;99.90;;;;;;5030590;28;20021;-88
2024/02/23 09:02:11;;;;;;;1.30;0.80;;;9.50;99.90;;;;;;5028403;28;20026;-88
2024/02/23 09:04:37;;;;;;;3.13;0.70;;;9.60;99.90;;;;;;5033876;28;20559;-89
2024/02/23 09:07:03;;;;;;;2.25;0.93;;;9.50;99.90;;;;;;5033614;28;20018;-88
2024/02/23 09:09:28;;;;;;;0.75;0.63;;;9.50;99.90;;;;;;5031510;28;20036;-88
2024/02/23 09:11:54;;;;;;;1.45;0.80;;;9.60;99.90;;;;;;5032242;28;20025;-88
2024/02/23 09:14:20;;;;;;;1.23;0.85;;;9.50;99.90;;;;;;5032180;28;20026;-88
2024/02/23 09:16:50;;;;;;;2.70;0.85;;;9.50;99.90;;;;;;5024591;28;20112;-87
2024/02/23 09:19:16;;;;;;;0.93;0.70;;;9.50;99.90;;;;;;5035499;28;20029;-89
2024/02/23 09:21:42;;;;;;;4.00;0.90;;;9.50;99.90;;;;;;5024695;28;20021;-88
2024/02/23 09:24:08;;;;;;;3.90;1.23;;;9.50;99.90;;;;;;5023632;28;20018;-88
2024/02/23 09:26:33;;;;;;;6.80;1.00;;;9.50;99.90;;;;;;5026670;28;20048;-89
2024/02/23 09:28:59;;;;;;;3.17;1.17;;;9.50;99.90;;;;;;5023000;28;20029;-88
2024/02/23 09:31:26;;;;;;;1.45;0.90;;;9.50;99.90;;;;;;5034571;28;20037;-88
2024/02/23 09:33:51;;;;;;;5.20;1.25;;;9.50;99.90;;;;;;5029632;28;20036;-88
2024/02/23 09:36:17;;;;;;;4.18;0.70;;;9.50;99.90;;;;;;5025637;28;20026;-88
2024/02/23 09:38:45;;;;;;;0.82;0.63;;;9.50;99.90;;;;;;5027400;28;20121;-89
2024/02/23 09:41:19;;;;;;;3.00;0.77;;;9.40;99.90;;;;;;5033595;28;20018;-87
2024/02/23 09:43:46;;;;;;;3.10;0.77;;;9.50;99.90;;;;;;5017902;28;20022;-87
2024/02/23 09:46:12;;;;;;;4.78;0.80;;;9.50;99.90;;;;;;5029189;28;20554;-88
2024/02/23 09:48:38;;;;;;;1.10;0.80;;;9.50;99.90;;;;;;5024834;28;20021;-87
2024/02/23 09:51:06;;;;;;;0.75;0.70;;;9.50;99.90;;;;;;5033906;28;20964;-88
2024/02/23 09:53:34;;;;;;;2.55;0.98;;;9.50;99.90;;;;;;5032509;28;20026;-87
2024/02/23 09:56:01;;;;;;;3.97;0.80;;;9.50;99.90;;;;;;5030293;28;20040;-88
2024/02/23 09:58:29;;;;;;;0.68;0.65;;;9.50;99.90;;;;;;5030127;28;20033;-88
2024/02/23 10:00:57;;;;;;;1.48;0.90;;;9.50;99.90;;;;;;5028972;28;20018;-88
2024/02/23 10:03:25;;;;;;;2.22;0.88;;;9.50;99.90;;;;;;5029130;28;20017;-89
2024/02/23 10:05:51;;;;;;;1.20;0.80;;;9.50;99.90;;;;;;5022338;28;20021;-88
2024/02/23 10:08:17;;;;;;;2.53;1.00;;;9.50;99.90;;;;;;5026254;28;20567;-88
2024/02/23 10:10:46;;;;;;;1.63;1.08;;;9.50;99.90;;;;;;5020401;28;20022;-88
2024/02/23 10:13:12;;;;;;;1.95;1.02;;;9.50;99.90;;;;;;5032242;28;20052;-87
2024/02/23 10:15:37;;;;;;;4.20;1.00;;;9.50;99.90;;;;;;5024422;28;20017;-88
2024/02/23 10:18:06;;;;;;;5.70;1.13;;;9.50;99.90;;;;;;5030105;28;20034;-88
2024/02/23 10:20:32;;;;;;;1.33;1.23;;;9.50;99.90;;;;;;5032309;28;20029;-88
2024/02/23 10:22:57;;;;;;;0.90;0.80;;;9.50;99.90;;;;;;5028147;28;20104;-88
2024/02/23 10:25:23;;;;;;;1.70;1.33;;;9.50;99.90;;;;;;5029957;28;20029;-88
2024/02/23 10:27:49;;;;;;;1.90;0.82;;;9.50;99.90;;;;;;5026045;28;20032;-87
2024/02/23 10:30:15;;;;;;;2.20;1.02;;;9.50;99.90;;;;;;5032257;28;20031;-88
2024/02/23 10:32:41;;;;;;;4.90;0.93;;;9.50;99.90;;;;;;5027520;28;20107;-87
2024/02/23 10:35:13;;;;;;;5.10;1.13;;;9.50;99.90;;;;;;5036614;28;20121;-87
2024/02/23 10:37:41;;;;;;;1.85;0.85;;;9.50;99.90;;;;;;5035328;28;20029;-87
2024/02/23 10:40:10;;;;;;;2.45;0.85;;;9.50;99.90;;;;;;5043282;28;20029;-87
2024/02/23 10:42:37;;;;;;;2.67;0.73;;;9.50;99.90;;;;;;5032876;28;20133;-88
2024/02/23 10:45:05;;;;;;;1.35;0.90;;;9.50;99.90;;;;;;5022432;28;20028;-90
2024/02/23 10:47:33;;;;;;;2.58;1.00;;;9.50;99.90;;;;;;5050058;28;20539;-87
2024/02/23 10:50:02;;;;;;;8.48;1.27;;;9.50;99.90;;;;;;5023854;28;20049;-88
2024/02/23 10:52:28;;;;;;;2.40;0.95;;;9.50;99.90;;;;;;5026246;28;20025;-88
2024/02/23 10:54:55;;;;;;;2.13;1.05;;;9.50;99.90;;;;;;5036691;28;20571;-88
2024/02/23 10:57:21;;;;;;;0.70;0.70;;;9.50;99.90;;;;;;5030403;28;20108;-88
2024/02/23 10:59:47;;;;;;;3.22;0.93;;;9.50;99.90;;;;;;5030293;28;20117;-88
2024/02/23 11:02:18;;;;;;;2.63;0.80;;;9.50;99.90;;;;;;5034767;28;20032;-88
2024/02/23 11:04:50;;;;;;;1.45;0.90;;;9.50;99.90;;;;;;5033457;28;20036;-88
2024/02/23 11:07:18;;;;;;;6.63;0.80;;;9.50;99.90;;;;;;5030646;28;20018;-88
2024/02/23 11:09:48;;;;;;;2.42;0.60;;;9.50;99.90;;;;;;5032585;28;20022;-88
2024/02/23 11:12:25;;;;;;;3.97;0.80;;;9.50;99.90;;;;;;5038690;28;20032;-88
2024/02/23 11:14:51;;;;;;;0.95;0.60;;;9.60;99.90;;;;;;5033200;28;20175;-87
2024/02/23 11:17:21;;;;;;;7.28;1.20;;;9.60;99.90;;;;;;5030969;28;20487;-88
2024/02/23 11:19:50;;;;;;;6.28;1.02;;;9.50;99.90;;;;;;5029056;28;20744;-88
2024/02/23 11:22:27;;;;;;;1.42;0.77;;;9.60;99.90;;;;;;5029350;28;20026;-88
2024/02/23 11:24:53;;;;;;;3.25;1.10;;;9.50;99.90;;;;;;5023302;28;20042;-88
2024/02/23 11:27:19;;;;;;;6.80;0.95;;;9.50;99.90;;;;;;5034468;28;20104;-88
2024/02/23 11:29:50;;;;;;;3.80;1.25;;;9.50;99.90;;;;;;5028794;28;20121;-89
2024/02/23 11:32:17;;;;;;;6.30;1.10;;;9.50;99.90;;;;;;5025380;28;20104;-88
2024/02/23 11:34:54;;;;;;;2.30;0.80;;;9.60;99.90;;;;;;5042065;28;20033;-87
2024/02/23 11:37:20;;;;;;;4.53;1.10;;;9.50;99.90;;;;;;5034975;28;20026;-88
2024/02/23 11:39:46;;;;;;;7.75;0.95;;;9.50;99.90;;;;;;5026631;28;20121;-88
2024/02/23 11:42:12;;;;;;;4.43;1.23;;;9.50;99.90;;;;;;5029563;28;20025;-88
2024/02/23 11:44:37;;;;;;;2.63;0.70;;;9.50;99.90;;;;;;5040316;28;20497;-88
2024/02/23 11:47:03;;;;;;;4.30;1.17;;;9.50;99.90;;;;;;5033933;28;20037;-88
2024/02/23 11:49:30;;;;;;;1.60;0.82;;;9.50;99.90;;;;;;5030524;28;20025;-88
2024/02/23 11:51:55;;;;;;;3.63;1.35;;;9.50;99.90;;;;;;5028084;28;20487;-88
2024/02/23 11:54:22;;;;;;;9.25;1.20;;;9.50;99.90;;;;;;5035077;28;20053;-88
2024/02/23 11:56:49;;;;;;;3.00;1.65;;;9.50;99.90;;;;;;5027609;28;20030;-87
2024/02/23 11:59:15;;;;;;;5.68;0.95;;;9.50;99.90;;;;;;5028588;28;20056;-88
2024/02/23 12:01:41;;;;;;;2.60;0.82;;;9.50;99.90;;;;;;5035318;28;20133;-88
2024/02/23 12:04:07;;;;;;;2.33;0.85;;;9.50;99.90;;;;;;5026362;28;20017;-88
2024/02/23 12:06:33;;;;;;;3.58;1.35;;;9.50;99.90;;;;;;5028372;28;20021;-88
2024/02/23 12:09:00;;;;;;;5.10;1.50;;;9.50;99.90;;;;;;5018879;28;20021;-88
2024/02/23 12:11:27;;;;;;;2.95;1.02;;;9.50;99.90;;;;;;5042439;28;20040;-87
2024/02/23 12:13:53;;;;;;;5.03;0.85;;;9.50;99.90;;;;;;5035878;28;20032;-89
2024/02/23 12:16:20;;;;;;;2.22;1.17;;;9.50;99.90;;;;;;5022720;28;20445;-87
2024/02/23 12:18:53;;;;;;;4.60;0.93;;;9.50;99.90;;;;;;5030265;28;20100;-88
2024/02/23 12:21:18;;;;;;;3.15;1.08;;;9.50;99.90;;;;;;5027189;28;20022;-87
2024/02/23 12:23:45;;;;;;;3.03;1.05;;;9.50;99.90;;;;;;5029322;28;20031;-89
2024/02/23 12:26:13;;;;;;;3.05;0.77;;;9.50;99.90;;;;;;5029842;28;20021;-88
2024/02/23 12:28:39;;;;;;;2.72;0.80;;;9.50;99.90;;;;;;5026041;28;20017;-88
2024/02/23 12:31:06;;;;;;;2.38;0.90;;;9.60;99.90;;;;;;5031864;28;20028;-88
2024/02/23 12:33:34;;;;;;;3.72;1.20;;;9.50;99.90;;;;;;5026304;28;20029;-88
2024/02/23 12:36:00;;;;;;;2.55;1.10;;;9.50;99.90;;;;;;5028337;28;20104;-88
2024/02/23 12:38:26;;;;;;;2.55;0.85;;;9.50;99.90;;;;;;5027303;28;20068;-88
2024/02/23 12:40:52;;;;;;;9.15;1.08;;;9.50;99.90;;;;;;5033820;28;20052;-88
2024/02/23 12:43:18;;;;;;;10.88;1.25;;;9.50;99.90;;;;;;5031602;28;20025;-88
2024/02/23 12:45:45;;;;;;;1.58;0.85;;;9.50;99.90;;;;;;5032057;28;20041;-88
2024/02/23 12:48:11;;;;;;;10.95;0.90;;;9.50;99.90;;;;;;5031933;28;20756;-88
2024/02/23 12:50:36;;;;;;;1.00;0.82;;;9.50;99.90;;;;;;5021557;28;20025;-88
2024/02/23 12:53:03;;;;;;;6.28;0.68;;;9.50;99.90;;;;;;5029988;28;20056;-88